createdAt,value
2018-09-01T00:00:28.699Z,45.70
2018-09-01T00:02:55.055Z,45.44
2018-09-01T00:05:21.413Z,45.34
2018-09-01T00:07:47.805Z,45.68
2018-09-01T00:10:14.202Z,45.42
2018-09-01T00:12:40.696Z,45.46
2018-09-01T00:15:07.126Z,45.45
2018-09-01T00:17:33.529Z,45.77
2018-09-01T00:19:59.884Z,45.83
2018-09-01T00:22:26.291Z,45.53
2018-09-01T00:24:52.656Z,45.81
2018-09-01T00:27:19.077Z,45.45
2018-09-01T00:29:45.464Z,45.67
2018-09-01T00:32:11.837Z,45.80
2018-09-01T00:34:38.216Z,45.84
2018-09-01T00:37:04.615Z,45.80
2018-09-01T00:39:30.962Z,45.64
2018-09-01T00:41:57.352Z,45.57
2018-09-01T00:44:23.705Z,45.64
2018-09-01T00:46:50.111Z,45.85
2018-09-01T00:49:16.477Z,45.91
2018-09-01T00:51:42.861Z,45.95
2018-09-01T00:54:09.228Z,46.06
2018-09-01T00:56:35.642Z,46.02
2018-09-01T00:59:01.983Z,45.87
2018-09-01T01:01:28.375Z,46.06
2018-09-01T01:03:54.745Z,46.00
2018-09-01T01:06:21.241Z,46.12
2018-09-01T01:08:47.611Z,46.11
2018-09-01T01:11:14.003Z,46.21
2018-09-01T01:13:40.358Z,46.09
2018-09-01T01:16:06.766Z,46.19
2018-09-01T01:18:33.123Z,46.37
2018-09-01T01:20:59.528Z,46.33
2018-09-01T01:23:25.887Z,46.27
2018-09-01T01:25:52.289Z,46.47
2018-09-01T01:28:18.671Z,46.42
2018-09-01T01:30:45.027Z,46.35
2018-09-01T01:33:11.410Z,46.57
2018-09-01T01:35:37.773Z,46.62
2018-09-01T01:38:05.147Z,46.57
2018-09-01T01:40:31.507Z,46.66
2018-09-01T01:42:57.868Z,46.67
2018-09-01T01:45:24.216Z,46.59
2018-09-01T01:47:50.649Z,46.67
2018-09-01T01:50:17.100Z,46.70
2018-09-01T01:52:43.462Z,46.77
2018-09-01T01:55:09.859Z,46.84
2018-09-01T01:57:36.331Z,46.89
2018-09-01T02:00:02.764Z,46.80
2018-09-01T02:02:29.182Z,46.89
2018-09-01T02:04:55.527Z,46.89
2018-09-01T02:07:21.932Z,47.03
2018-09-01T02:09:48.291Z,47.01
2018-09-01T02:12:14.800Z,46.93
2018-09-01T02:14:41.157Z,46.99
2018-09-01T02:17:07.595Z,47.09
2018-09-01T02:19:34.002Z,46.99
2018-09-01T02:22:00.343Z,47.14
2018-09-01T02:24:26.772Z,47.16
2018-09-01T02:26:53.160Z,47.15
2018-09-01T02:31:51.911Z,47.19
2018-09-01T02:34:18.252Z,47.12
2018-09-01T02:36:44.638Z,47.24
2018-09-01T02:39:11.089Z,47.20
2018-09-01T02:41:37.470Z,47.22
2018-09-01T02:44:03.824Z,47.41
2018-09-01T02:46:30.191Z,47.32
2018-09-01T02:48:56.590Z,47.37
2018-09-01T02:51:22.939Z,47.30
2018-09-01T02:53:49.397Z,47.35
2018-09-01T02:56:15.747Z,47.40
2018-09-01T02:58:42.316Z,47.41
2018-09-01T03:01:08.666Z,47.40
2018-09-01T03:03:35.078Z,47.44
2018-09-01T03:06:01.431Z,47.43
2018-09-01T03:08:27.866Z,47.47
2018-09-01T03:10:54.229Z,47.54
2018-09-01T03:13:20.628Z,47.55
2018-09-01T03:15:47.015Z,47.42
2018-09-01T03:18:13.427Z,47.63
2018-09-01T03:20:39.843Z,47.65
2018-09-01T03:23:06.297Z,47.63
2018-09-01T03:25:36.664Z,47.58
2018-09-01T03:28:03.020Z,47.60
2018-09-01T03:30:29.424Z,47.60
2018-09-01T03:32:55.780Z,47.66
2018-09-01T03:35:22.193Z,47.76
2018-09-01T03:37:48.546Z,47.82
2018-09-01T03:40:14.921Z,47.73
2018-09-01T03:42:41.348Z,47.70
2018-09-01T03:45:07.687Z,47.68
2018-09-01T03:47:34.098Z,47.75
2018-09-01T03:50:00.450Z,47.80
2018-09-01T03:52:26.825Z,47.70
2018-09-01T03:54:53.199Z,47.79
2018-09-01T03:57:19.557Z,47.85
2018-09-01T03:59:45.968Z,47.81
2018-09-01T04:02:12.360Z,47.82
2018-09-01T04:04:38.814Z,47.83
2018-09-01T04:07:05.178Z,47.84
2018-09-01T04:09:31.590Z,47.79
2018-09-01T04:11:57.919Z,47.84
2018-09-01T04:14:24.296Z,47.79
2018-09-01T04:16:50.655Z,47.76
2018-09-01T04:19:17.012Z,47.86
2018-09-01T04:21:43.427Z,47.83
2018-09-01T04:24:09.770Z,47.73
2018-09-01T04:26:36.112Z,47.79
2018-09-01T04:29:02.502Z,47.70
2018-09-01T04:31:28.875Z,47.72
2018-09-01T04:33:55.210Z,47.67
2018-09-01T04:36:21.614Z,47.71
2018-09-01T04:38:47.972Z,47.55
2018-09-01T04:41:14.357Z,47.39
2018-09-01T04:43:40.680Z,47.33
2018-09-01T04:46:07.056Z,47.43
2018-09-01T04:48:33.453Z,47.39
2018-09-01T04:50:59.809Z,47.56
2018-09-01T04:53:26.144Z,47.54
2018-09-01T04:55:52.520Z,47.47
2018-09-01T04:58:18.839Z,47.52
2018-09-01T05:00:45.258Z,47.34
2018-09-01T05:03:11.611Z,47.12
2018-09-01T05:05:38.004Z,46.99
2018-09-01T05:08:04.331Z,47.12
2018-09-01T05:10:30.668Z,47.13
2018-09-01T05:12:57.077Z,47.08
2018-09-01T05:15:23.698Z,47.07
2018-09-01T05:17:50.069Z,47.08
2018-09-01T05:20:16.415Z,47.04
2018-09-01T05:22:42.743Z,46.96
2018-09-01T05:25:09.076Z,46.94
2018-09-01T05:27:35.456Z,46.90
2018-09-01T05:30:01.791Z,46.86
2018-09-01T05:32:28.157Z,46.88
2018-09-01T05:34:54.480Z,46.82
2018-09-01T05:37:20.881Z,46.80
2018-09-01T05:39:47.354Z,46.76
2018-09-01T05:42:13.883Z,46.76
2018-09-01T05:44:40.249Z,46.76
2018-09-01T05:47:06.648Z,46.73
2018-09-01T05:49:33.049Z,46.67
2018-09-01T05:51:59.408Z,46.66
2018-09-01T05:54:25.857Z,46.63
2018-09-01T05:56:52.184Z,46.61
2018-09-01T05:59:18.564Z,46.63
2018-09-01T06:01:44.934Z,46.60
2018-09-01T06:04:11.312Z,46.59
2018-09-01T06:06:37.769Z,46.60
2018-09-01T06:09:04.096Z,46.57
2018-09-01T06:11:30.447Z,46.57
2018-09-01T06:13:56.831Z,46.60
2018-09-01T06:16:23.218Z,46.60
2018-09-01T06:18:49.550Z,46.64
2018-09-01T06:21:15.928Z,46.64
2018-09-01T06:23:42.397Z,46.68
2018-09-01T06:26:09.030Z,46.67
2018-09-01T06:28:35.505Z,46.70
2018-09-01T06:31:01.855Z,46.69
2018-09-01T06:33:28.234Z,46.69
2018-09-01T06:35:54.751Z,46.74
2018-09-01T06:38:21.100Z,46.72
2018-09-01T06:40:47.556Z,46.72
2018-09-01T06:43:13.880Z,46.72
2018-09-01T06:45:40.285Z,46.70
2018-09-01T06:48:06.724Z,46.70
2018-09-01T06:50:33.110Z,46.70
2018-09-01T06:52:59.448Z,46.67
2018-09-01T06:55:25.943Z,46.73
2018-09-01T06:57:52.319Z,46.73
2018-09-01T07:00:18.643Z,46.76
2018-09-01T07:02:44.971Z,46.78
2018-09-01T07:05:11.489Z,46.78
2018-09-01T07:07:37.962Z,46.80
2018-09-01T07:10:04.308Z,46.83
2018-09-01T07:12:30.664Z,46.80
2018-09-01T07:14:57.001Z,46.84
2018-09-01T07:17:23.368Z,46.83
2018-09-01T07:19:49.697Z,46.80
2018-09-01T07:22:16.048Z,46.77
2018-09-01T07:24:42.393Z,46.75
2018-09-01T07:27:08.750Z,46.78
2018-09-01T07:29:35.125Z,46.74
2018-09-01T07:32:01.455Z,46.73
2018-09-01T07:34:27.767Z,46.73
2018-09-01T07:36:54.107Z,46.67
2018-09-01T07:39:20.479Z,46.65
2018-09-01T07:41:46.836Z,46.64
2018-09-01T07:44:13.169Z,46.61
2018-09-01T07:46:39.536Z,46.62
2018-09-01T07:49:06.091Z,46.59
2018-09-01T07:51:32.425Z,46.57
2018-09-01T07:53:58.820Z,46.54
2018-09-01T07:56:25.141Z,46.50
2018-09-01T07:58:51.489Z,46.47
2018-09-01T08:01:17.820Z,46.44
2018-09-01T08:03:44.315Z,46.46
2018-09-01T08:06:10.667Z,46.44
2018-09-01T08:08:36.996Z,46.42
2018-09-01T08:11:03.347Z,46.41
2018-09-01T08:13:29.739Z,46.39
2018-09-01T08:15:56.190Z,46.40
2018-09-01T08:18:22.515Z,46.37
2018-09-01T08:20:48.846Z,46.32
2018-09-01T08:23:15.255Z,46.27
2018-09-01T08:25:41.597Z,46.22
2018-09-01T08:28:07.971Z,46.21
2018-09-01T08:30:34.291Z,46.12
2018-09-01T08:33:00.631Z,46.12
2018-09-01T08:35:27.082Z,46.11
2018-09-01T08:37:53.530Z,46.02
2018-09-01T08:40:19.878Z,46.00
2018-09-01T08:42:46.233Z,45.99
2018-09-01T08:45:12.596Z,45.97
2018-09-01T08:47:38.951Z,45.97
2018-09-01T08:50:05.295Z,45.96
2018-09-01T08:52:31.620Z,45.98
2018-09-01T08:54:57.959Z,45.93
2018-09-01T08:57:24.291Z,45.90
2018-09-01T08:59:50.616Z,45.90
2018-09-01T09:02:16.935Z,45.90
2018-09-01T09:04:43.271Z,45.86
2018-09-01T09:07:09.627Z,45.85
2018-09-01T09:09:35.963Z,45.82
2018-09-01T09:12:02.294Z,45.78
2018-09-01T09:14:28.653Z,45.73
2018-09-01T09:16:55.079Z,45.78
2018-09-01T09:19:21.412Z,45.73
2018-09-01T09:21:47.787Z,45.74
2018-09-01T09:24:14.124Z,45.75
2018-09-01T09:26:40.659Z,45.74
2018-09-01T09:29:06.992Z,45.73
2018-09-01T09:31:33.457Z,45.76
2018-09-01T09:33:59.841Z,45.72
2018-09-01T09:36:26.177Z,45.74
2018-09-01T09:38:52.544Z,45.71
2018-09-01T09:41:18.860Z,45.68
2018-09-01T09:43:45.191Z,45.69
2018-09-01T09:46:11.582Z,45.60
2018-09-01T09:48:37.934Z,45.53
2018-09-01T09:51:04.264Z,45.43
2018-09-01T09:53:30.594Z,45.27
2018-09-01T09:55:56.946Z,45.20
2018-09-01T09:58:23.355Z,45.06
2018-09-01T10:00:49.663Z,45.04
2018-09-01T10:03:16.050Z,44.99
2018-09-01T10:05:42.556Z,44.96
2018-09-01T10:08:08.883Z,44.87
2018-09-01T10:10:35.314Z,44.83
2018-09-01T10:13:01.639Z,44.80
2018-09-01T10:15:28.022Z,44.81
2018-09-01T10:17:54.372Z,44.70
2018-09-01T10:20:20.801Z,44.52
2018-09-01T10:22:47.151Z,44.49
2018-09-01T10:25:13.497Z,44.41
2018-09-01T10:27:39.889Z,44.25
2018-09-01T10:30:06.220Z,44.16
2018-09-01T10:32:32.593Z,44.17
2018-09-01T10:34:59.032Z,44.17
2018-09-01T10:37:25.440Z,44.09
2018-09-01T10:39:51.769Z,43.99
2018-09-01T10:42:18.145Z,43.87
2018-09-01T10:44:44.512Z,43.81
2018-09-01T10:47:10.888Z,43.84
2018-09-01T10:49:37.296Z,43.77
2018-09-01T10:52:03.627Z,43.80
2018-09-01T10:54:29.957Z,43.83
2018-09-01T10:56:56.395Z,43.64
2018-09-01T10:59:22.849Z,43.41
2018-09-01T11:01:49.124Z,43.42
2018-09-01T11:04:15.494Z,43.46
2018-09-01T11:06:41.876Z,43.34
2018-09-01T11:09:08.285Z,43.23
2018-09-01T11:11:34.618Z,43.22
2018-09-01T11:14:00.988Z,43.24
2018-09-01T11:16:27.341Z,43.22
2018-09-01T11:18:53.727Z,43.09
2018-09-01T11:21:20.108Z,43.13
2018-09-01T11:23:46.480Z,43.07
2018-09-01T11:26:12.856Z,42.95
2018-09-01T11:28:39.231Z,42.83
2018-09-01T11:31:05.556Z,42.78
2018-09-01T11:33:31.924Z,42.77
2018-09-01T11:35:58.243Z,42.71
2018-09-01T11:38:24.571Z,42.64
2018-09-01T11:40:50.904Z,42.57
2018-09-01T11:43:17.286Z,42.43
2018-09-01T11:45:43.667Z,42.35
2018-09-01T11:48:10.051Z,42.22
2018-09-01T11:50:36.384Z,42.14
2018-09-01T11:53:02.794Z,42.09
2018-09-01T11:55:29.187Z,41.94
2018-09-01T11:57:55.571Z,42.01
2018-09-01T12:00:21.943Z,41.89
2018-09-01T12:02:48.340Z,41.90
2018-09-01T12:05:14.722Z,41.82
2018-09-01T12:07:41.129Z,41.81
2018-09-01T12:10:07.460Z,41.85
2018-09-01T12:12:33.840Z,41.78
2018-09-01T12:15:00.188Z,41.68
2018-09-01T12:17:26.553Z,41.59
2018-09-01T12:19:52.886Z,41.56
2018-09-01T12:22:19.305Z,41.55
2018-09-01T12:24:45.621Z,41.42
2018-09-01T12:27:12.021Z,41.48
2018-09-01T12:29:38.410Z,41.39
2018-09-01T12:32:04.760Z,41.16
2018-09-01T12:34:31.192Z,41.10
2018-09-01T12:36:57.633Z,41.02
2018-09-01T12:39:24.024Z,41.01
2018-09-01T12:41:50.416Z,40.98
2018-09-01T12:44:16.772Z,41.12
2018-09-01T12:46:43.162Z,40.97
2018-09-01T12:49:09.513Z,40.82
2018-09-01T12:51:35.947Z,40.76
2018-09-01T12:54:02.328Z,40.70
2018-09-01T12:56:28.684Z,40.56
2018-09-01T12:58:55.065Z,40.48
2018-09-01T13:01:21.398Z,40.36
2018-09-01T13:03:47.736Z,40.14
2018-09-01T13:06:14.077Z,39.75
2018-09-01T13:08:40.519Z,39.64
2018-09-01T13:11:06.878Z,39.52
2018-09-01T13:13:33.275Z,39.59
2018-09-01T13:15:59.667Z,39.36
2018-09-01T13:18:26.007Z,39.46
2018-09-01T13:20:52.366Z,39.45
2018-09-01T13:23:18.751Z,39.27
2018-09-01T13:25:45.079Z,39.20
2018-09-01T13:28:11.452Z,39.09
2018-09-01T13:30:37.856Z,39.01
2018-09-01T13:33:04.200Z,38.98
2018-09-01T13:35:30.692Z,38.82
2018-09-01T13:37:57.065Z,38.79
2018-09-01T13:40:23.396Z,38.88
2018-09-01T13:42:49.778Z,38.69
2018-09-01T13:45:16.183Z,38.53
2018-09-01T13:47:42.562Z,38.64
2018-09-01T13:50:08.917Z,38.60
2018-09-01T13:52:35.267Z,38.41
2018-09-01T13:55:01.595Z,38.35
2018-09-01T13:57:28.080Z,38.11
2018-09-01T13:59:54.319Z,38.24
2018-09-01T14:02:20.789Z,38.12
2018-09-01T14:04:47.140Z,38.13
2018-09-01T14:07:13.510Z,38.17
2018-09-01T14:09:39.840Z,37.95
2018-09-01T14:12:06.184Z,37.96
2018-09-01T14:14:32.538Z,38.06
2018-09-01T14:16:58.871Z,38.04
2018-09-01T14:19:25.223Z,37.95
2018-09-01T14:21:51.702Z,37.95
2018-09-01T14:24:18.118Z,37.79
2018-09-01T14:26:44.471Z,38.01
2018-09-01T14:29:10.816Z,37.82
2018-09-01T14:31:37.226Z,37.81
2018-09-01T14:34:03.559Z,37.66
2018-09-01T14:36:30.113Z,37.64
2018-09-01T14:38:56.324Z,37.59
2018-09-01T14:41:22.660Z,37.61
2018-09-01T14:43:49.017Z,37.41
2018-09-01T14:46:15.373Z,37.44
2018-09-01T14:48:41.748Z,37.40
2018-09-01T14:51:08.109Z,37.40
2018-09-01T14:53:34.443Z,37.37
2018-09-01T14:56:00.781Z,37.37
2018-09-01T14:58:27.151Z,37.38
2018-09-01T15:00:53.507Z,37.35
2018-09-01T15:03:19.870Z,37.30
2018-09-01T15:05:46.225Z,37.38
2018-09-01T15:08:12.557Z,37.34
2018-09-01T15:10:38.927Z,37.34
2018-09-01T15:13:05.254Z,37.34
2018-09-01T15:15:31.623Z,37.30
2018-09-01T15:17:58.092Z,37.41
2018-09-01T15:20:24.416Z,37.36
2018-09-01T15:22:50.812Z,37.27
2018-09-01T15:25:17.143Z,37.26
2018-09-01T15:27:43.480Z,37.21
2018-09-01T15:30:09.847Z,37.37
2018-09-01T15:32:36.316Z,37.38
2018-09-01T15:35:02.667Z,37.50
2018-09-01T15:37:29.044Z,37.37
2018-09-01T15:39:55.437Z,37.43
2018-09-01T15:42:21.800Z,37.48
2018-09-01T15:44:48.262Z,37.59
2018-09-01T15:47:14.606Z,37.53
2018-09-01T15:49:40.935Z,37.74
2018-09-01T15:52:07.331Z,37.77
2018-09-01T15:54:33.663Z,37.74
2018-09-01T15:56:59.996Z,37.75
2018-09-01T15:59:26.317Z,37.85
2018-09-01T16:01:52.652Z,37.94
2018-09-01T16:04:19.108Z,38.04
2018-09-01T16:06:45.544Z,38.09
2018-09-01T16:09:11.932Z,38.14
2018-09-01T16:11:38.262Z,38.23
2018-09-01T16:14:04.748Z,38.31
2018-09-01T16:16:31.084Z,38.37
2018-09-01T16:18:57.416Z,38.39
2018-09-01T16:21:23.790Z,38.55
2018-09-01T16:23:50.130Z,38.49
2018-09-01T16:26:16.528Z,38.58
2018-09-01T16:28:42.863Z,38.61
2018-09-01T16:31:09.209Z,38.65
2018-09-01T16:33:35.615Z,38.88
2018-09-01T16:36:01.960Z,38.93
2018-09-01T16:38:28.331Z,39.01
2018-09-01T16:40:54.684Z,39.23
2018-09-01T16:43:21.035Z,39.35
2018-09-01T16:45:47.416Z,39.49
2018-09-01T16:48:13.819Z,39.59
2018-09-01T16:50:40.205Z,39.66
2018-09-01T16:53:06.627Z,39.68
2018-09-01T16:55:33.022Z,39.74
2018-09-01T16:57:59.376Z,39.78
2018-09-01T17:00:25.749Z,39.89
2018-09-01T17:02:52.111Z,40.00
2018-09-01T17:05:18.472Z,40.20
2018-09-01T17:07:44.852Z,40.52
2018-09-01T17:10:11.280Z,40.68
2018-09-01T17:12:37.615Z,41.05
2018-09-01T17:15:03.970Z,41.28
2018-09-01T17:17:30.312Z,41.48
2018-09-01T17:19:56.682Z,41.68
2018-09-01T17:22:23.128Z,41.72
2018-09-01T17:24:49.456Z,42.19
2018-09-01T17:27:15.785Z,42.26
2018-09-01T17:29:42.208Z,42.23
2018-09-01T17:32:08.549Z,42.46
2018-09-01T17:34:34.960Z,42.46
2018-09-01T17:37:01.348Z,42.75
2018-09-01T17:39:27.687Z,42.87
2018-09-01T17:41:54.052Z,43.26
2018-09-01T17:44:20.375Z,43.40
2018-09-01T17:46:46.751Z,43.13
2018-09-01T17:49:13.101Z,43.29
2018-09-01T17:51:39.478Z,43.37
2018-09-01T17:54:05.829Z,43.64
2018-09-01T17:56:32.223Z,43.76
2018-09-01T17:58:58.590Z,43.79
2018-09-01T18:01:24.976Z,43.90
2018-09-01T18:03:51.365Z,43.84
2018-09-01T18:06:18.350Z,44.01
2018-09-01T18:08:45.553Z,44.11
2018-09-01T18:11:11.916Z,44.23
2018-09-01T18:13:38.285Z,44.35
2018-09-01T18:16:04.635Z,44.42
2018-09-01T18:18:30.984Z,44.41
2018-09-01T18:20:57.368Z,44.51
2018-09-01T18:23:23.691Z,44.66
2018-09-01T18:25:50.035Z,44.70
2018-09-01T18:28:16.424Z,44.76
2018-09-01T18:30:42.822Z,44.80
2018-09-01T18:33:09.165Z,44.93
2018-09-01T18:35:35.510Z,45.02
2018-09-01T18:38:01.916Z,45.01
2018-09-01T18:40:28.257Z,45.06
2018-09-01T18:42:54.591Z,45.03
2018-09-01T18:45:20.937Z,45.19
2018-09-01T18:47:47.332Z,45.14
2018-09-01T18:50:13.729Z,45.27
2018-09-01T18:52:40.183Z,45.27
2018-09-01T18:55:06.566Z,45.39
2018-09-01T18:57:32.979Z,45.40
2018-09-01T18:59:59.329Z,45.37
2018-09-01T19:02:25.685Z,45.48
2018-09-01T19:04:52.133Z,45.52
2018-09-01T19:07:18.675Z,45.61
2018-09-01T19:09:45.039Z,45.58
2018-09-01T19:12:11.473Z,45.70
2018-09-01T19:14:37.880Z,45.71
2018-09-01T19:17:04.237Z,45.75
2018-09-01T19:19:30.577Z,45.84
2018-09-01T19:21:56.940Z,45.92
2018-09-01T19:24:23.296Z,45.90
2018-09-01T19:26:49.639Z,45.85
2018-09-01T19:29:15.988Z,45.80
2018-09-01T19:31:42.319Z,45.87
2018-09-01T19:34:09.470Z,45.90
2018-09-01T19:36:35.827Z,45.95
2018-09-01T19:39:02.367Z,46.02
2018-09-01T19:41:28.731Z,46.02
2018-09-01T19:43:55.065Z,46.07
2018-09-01T19:46:21.474Z,46.10
2018-09-01T19:48:47.830Z,46.11
2018-09-01T19:51:14.235Z,46.20
2018-09-01T19:53:40.579Z,46.25
2018-09-01T19:56:06.907Z,46.19
2018-09-01T19:58:33.246Z,46.31
2018-09-01T20:00:59.588Z,46.35
2018-09-01T20:03:25.947Z,46.39
2018-09-01T20:05:52.264Z,46.37
2018-09-01T20:08:18.601Z,46.32
2018-09-01T20:10:44.988Z,46.39
2018-09-01T20:13:11.322Z,46.46
2018-09-01T20:15:37.705Z,46.47
2018-09-01T20:18:04.035Z,46.45
2018-09-01T20:20:30.366Z,46.41
2018-09-01T20:22:56.695Z,46.41
2018-09-01T20:25:23.187Z,46.49
2018-09-01T20:27:49.424Z,46.44
2018-09-01T20:30:15.832Z,46.51
2018-09-01T20:32:42.155Z,46.54
2018-09-01T20:35:08.500Z,46.54
2018-09-01T20:37:34.838Z,46.60
2018-09-01T20:40:01.223Z,46.60
2018-09-01T20:42:27.579Z,46.63
2018-09-01T20:44:53.955Z,46.57
2018-09-01T20:47:20.811Z,46.60
2018-09-01T20:49:47.147Z,46.84
2018-09-01T20:52:13.477Z,46.63
2018-09-01T20:54:39.823Z,46.62
2018-09-01T20:57:06.175Z,46.70
2018-09-01T20:59:32.503Z,46.74
2018-09-01T21:01:58.823Z,46.72
2018-09-01T21:04:25.305Z,46.74
2018-09-01T21:06:51.606Z,46.86
2018-09-01T21:09:17.939Z,46.83
2018-09-01T21:11:44.265Z,46.94
2018-09-01T21:14:10.604Z,46.84
2018-09-01T21:16:36.980Z,46.81
2018-09-01T21:19:03.326Z,46.72
2018-09-01T21:21:29.679Z,46.94
2018-09-01T21:23:56.022Z,46.89
2018-09-01T21:26:22.388Z,46.83
2018-09-01T21:28:48.746Z,46.88
2018-09-01T21:31:15.066Z,47.03
2018-09-01T21:33:42.900Z,46.85
2018-09-01T21:36:09.231Z,46.84
2018-09-01T21:38:35.570Z,46.91
2018-09-01T21:41:01.993Z,46.81
2018-09-01T21:43:28.343Z,46.93
2018-09-01T21:45:54.687Z,47.07
2018-09-01T21:48:21.036Z,47.15
2018-09-01T21:50:47.385Z,46.99
2018-09-01T21:53:13.718Z,46.87
2018-09-01T21:55:40.072Z,46.89
2018-09-01T21:58:06.429Z,46.83
2018-09-01T22:00:32.757Z,46.92
2018-09-01T22:02:59.110Z,46.83
2018-09-01T22:05:25.485Z,46.90
2018-09-01T22:07:51.830Z,47.02
2018-09-01T22:10:18.215Z,46.89
2018-09-01T22:12:44.586Z,47.00
2018-09-01T22:15:10.939Z,47.00
2018-09-01T22:17:37.295Z,46.98
2018-09-01T22:20:03.672Z,47.00
2018-09-01T22:22:30.066Z,46.81
2018-09-01T22:24:56.432Z,46.96
2018-09-01T22:27:22.800Z,47.10
2018-09-01T22:29:49.130Z,47.04
2018-09-01T22:32:15.516Z,47.43
2018-09-01T22:34:41.920Z,47.08
2018-09-01T22:37:08.272Z,47.28
2018-09-01T22:39:34.644Z,47.24
2018-09-01T22:42:01.051Z,47.19
2018-09-01T22:44:27.384Z,47.12
2018-09-01T22:46:53.743Z,47.02
2018-09-01T22:49:20.088Z,47.05
2018-09-01T22:51:46.477Z,46.90
2018-09-01T22:54:12.823Z,47.12
2018-09-01T22:56:39.203Z,47.12
2018-09-01T22:59:05.526Z,47.11
2018-09-01T23:01:31.893Z,46.93
2018-09-01T23:03:58.263Z,47.00
2018-09-01T23:06:24.588Z,47.10
2018-09-01T23:08:50.960Z,47.12
2018-09-01T23:11:17.299Z,47.23
2018-09-01T23:13:43.687Z,47.25
2018-09-01T23:16:10.024Z,47.21
2018-09-01T23:18:36.484Z,47.18
2018-09-01T23:21:02.857Z,47.08
2018-09-01T23:23:29.323Z,47.17
2018-09-01T23:25:55.694Z,47.38
2018-09-01T23:28:22.010Z,47.39
2018-09-01T23:30:48.447Z,47.26
2018-09-01T23:33:14.789Z,47.21
2018-09-01T23:35:41.129Z,47.46
2018-09-01T23:38:07.513Z,47.46
2018-09-01T23:40:33.904Z,47.22
2018-09-01T23:43:00.410Z,47.18
2018-09-01T23:45:26.740Z,47.14
2018-09-01T23:47:53.268Z,47.26
2018-09-01T23:50:19.631Z,47.22
2018-09-01T23:52:45.985Z,47.22
2018-09-01T23:55:12.320Z,47.22
2018-09-01T23:57:38.699Z,47.25
